createdAt,value
2022-09-09T00:04:11.923Z,0
2022-09-09T00:09:29.261Z,0
2022-09-09T00:14:46.501Z,0
2022-09-09T00:20:03.609Z,0
2022-09-09T00:25:21.085Z,0
2022-09-09T00:30:38.669Z,0
2022-09-09T00:35:55.910Z,0
2022-09-09T00:41:13.031Z,0
2022-09-09T00:46:30.354Z,0
2022-09-09T00:51:48.352Z,0
2022-09-09T00:57:05.755Z,0
2022-09-09T01:02:23.183Z,0
2022-09-09T01:07:43.273Z,0
2022-09-09T01:13:00.783Z,0
2022-09-09T01:18:17.994Z,0
2022-09-09T01:23:35.682Z,0
2022-09-09T01:28:52.877Z,0
2022-09-09T01:34:10.192Z,0
2022-09-09T01:39:27.479Z,0
2022-09-09T01:44:47.815Z,0
2022-09-09T01:50:05.315Z,0
2022-09-09T01:55:22.792Z,0
2022-09-09T02:00:40.092Z,0
2022-09-09T02:05:57.535Z,0
2022-09-09T02:11:14.790Z,0
2022-09-09T02:16:32.801Z,0
2022-09-09T02:21:50.346Z,0
2022-09-09T02:27:07.632Z,0
2022-09-09T02:32:24.992Z,0
2022-09-09T02:37:42.356Z,0
2022-09-09T02:42:59.550Z,0
2022-09-09T02:48:16.804Z,0
2022-09-09T02:53:34.442Z,0
2022-09-09T02:58:51.884Z,0
2022-09-09T03:04:09.234Z,0
2022-09-09T03:09:26.396Z,0
2022-09-09T03:14:43.814Z,0
2022-09-09T03:20:01.110Z,0
2022-09-09T03:25:18.149Z,0
2022-09-09T03:30:35.442Z,0
2022-09-09T03:35:53.259Z,0
2022-09-09T03:47:08.375Z,0
2022-09-09T03:52:25.868Z,0
2022-09-09T03:57:43.089Z,0
2022-09-09T04:08:50.306Z,0
2022-09-09T04:14:07.701Z,0
2022-09-09T04:19:25.008Z,0
2022-09-09T04:24:45.568Z,0.5
2022-09-09T04:35:22.719Z,5.7
2022-09-09T04:40:39.944Z,0.5
2022-09-09T04:45:57.030Z,25.4
2022-09-09T04:51:14.049Z,54.2
2022-09-09T04:56:30.891Z,98.3
2022-09-09T05:01:48.252Z,171.7
2022-09-09T05:24:01.858Z,936.7
2022-09-09T05:29:18.924Z,1060.8
2022-09-09T05:40:25.694Z,1298.7
2022-09-09T05:45:42.601Z,1356.3
2022-09-09T05:56:51.671Z,2082.9
2022-09-09T10:09:29.001Z,13687.5
2022-09-09T13:01:24.217Z,10201.7
2022-09-09T13:35:58.759Z,9592.9
2022-09-09T14:28:51.878Z,5472.9
2022-09-09T14:34:10.255Z,7802.1
2022-09-09T14:46:05.526Z,9904.2
2022-09-09T14:51:22.353Z,8996.2
2022-09-09T14:57:10.882Z,9905
2022-09-09T15:08:17.833Z,4940.4
2022-09-09T15:19:23.199Z,2945.4
2022-09-09T15:36:00.399Z,8345.4
2022-09-09T16:10:34.104Z,5269.6
2022-09-09T16:15:50.968Z,5100.8
2022-09-09T16:33:10.390Z,1867.9
2022-09-09T16:50:06.478Z,1487.1
2022-09-09T16:55:55.590Z,1322.1
2022-09-09T17:07:02.235Z,982.5
2022-09-09T17:35:37.910Z,521.2
2022-09-09T17:40:55.018Z,172.1
2022-09-09T17:46:12.027Z,120.8
2022-09-09T17:57:19.487Z,75.8
2022-09-09T18:02:36.559Z,57.9
2022-09-09T18:13:43.844Z,14.7
2022-09-09T18:24:51.235Z,1.7
2022-09-09T18:30:08.493Z,0.8
2022-09-09T18:35:25.803Z,0.3
2022-09-09T18:46:32.941Z,0
2022-09-09T18:52:09.760Z,0
2022-09-09T19:03:18.706Z,0
2022-09-09T19:14:25.630Z,0
2022-09-09T19:19:43.208Z,0
2022-09-09T19:30:50.315Z,0
2022-09-09T19:36:07.548Z,0
2022-09-09T19:41:24.613Z,0
2022-09-09T19:52:31.449Z,0
2022-09-09T19:57:48.630Z,0
2022-09-09T20:03:18.474Z,0
2022-09-09T20:26:05.924Z,0
2022-09-09T20:31:23.234Z,0
2022-09-09T20:36:40.491Z,0
2022-09-09T20:41:57.782Z,0
2022-09-09T20:47:17.767Z,0
2022-09-09T20:52:35.204Z,0
2022-09-09T20:57:52.416Z,0
2022-09-09T21:03:09.557Z,0
2022-09-09T21:14:16.555Z,0
2022-09-09T21:19:34.017Z,0
2022-09-09T21:24:51.325Z,0
2022-09-09T21:30:08.599Z,0
2022-09-09T21:35:25.879Z,0
2022-09-09T21:40:51.352Z,0
2022-09-09T21:46:32.739Z,0
2022-09-09T22:20:59.683Z,0
2022-09-09T22:26:16.694Z,0
2022-09-09T22:31:42.342Z,0
2022-09-09T22:36:59.793Z,0
2022-09-09T22:48:07.037Z,0
2022-09-09T22:53:56.530Z,0
2022-09-09T22:59:14.171Z,0
2022-09-09T23:04:55.807Z,0
2022-09-09T23:16:10.091Z,0
2022-09-09T23:21:28.142Z,0
2022-09-09T23:26:45.457Z,0
2022-09-09T23:32:04.767Z,0
2022-09-09T23:37:22.092Z,0
2022-09-09T23:42:39.249Z,0
2022-09-09T23:48:05.560Z,0
2022-09-09T23:53:23.019Z,0
2022-09-09T23:58:50.541Z,0
